sensor_id;sensor_type;location;lat;lon;timestamp;P1;durP1;ratioP1;P2;durP2;ratioP2
19059;SDS011;9663;48.996;8.334;2023-11-21T00:00:13;3.28;;;0.90;;
19059;SDS011;9663;48.996;8.334;2023-11-21T00:02:41;3.33;;;1.00;;
19059;SDS011;9663;48.996;8.334;2023-11-21T00:05:08;2.35;;;0.90;;
19059;SDS011;9663;48.996;8.334;2023-11-21T00:07:35;2.97;;;0.90;;
19059;SDS011;9663;48.996;8.334;2023-11-21T00:10:02;4.15;;;0.90;;
19059;SDS011;9663;48.996;8.334;2023-11-21T00:12:30;2.05;;;0.70;;
19059;SDS011;9663;48.996;8.334;2023-11-21T00:14:57;4.15;;;0.98;;
19059;SDS011;9663;48.996;8.334;2023-11-21T00:17:23;5.22;;;1.17;;
19059;SDS011;9663;48.996;8.334;2023-11-21T00:19:49;3.33;;;0.90;;
19059;SDS011;9663;48.996;8.334;2023-11-21T00:22:17;2.85;;;0.82;;
19059;SDS011;9663;48.996;8.334;2023-11-21T00:24:43;3.30;;;0.98;;
19059;SDS011;9663;48.996;8.334;2023-11-21T00:27:09;3.65;;;0.82;;
19059;SDS011;9663;48.996;8.334;2023-11-21T00:29:35;3.08;;;1.00;;
19059;SDS011;9663;48.996;8.334;2023-11-21T00:32:01;3.10;;;1.00;;
19059;SDS011;9663;48.996;8.334;2023-11-21T00:34:27;3.67;;;1.10;;
19059;SDS011;9663;48.996;8.334;2023-11-21T00:36:52;2.05;;;0.82;;
19059;SDS011;9663;48.996;8.334;2023-11-21T00:39:18;2.45;;;0.80;;
19059;SDS011;9663;48.996;8.334;2023-11-21T00:41:44;3.78;;;1.00;;
19059;SDS011;9663;48.996;8.334;2023-11-21T00:44:10;4.10;;;1.00;;
19059;SDS011;9663;48.996;8.334;2023-11-21T00:46:36;4.72;;;1.00;;
19059;SDS011;9663;48.996;8.334;2023-11-21T00:49:02;4.85;;;1.00;;
19059;SDS011;9663;48.996;8.334;2023-11-21T00:51:29;2.95;;;0.80;;
19059;SDS011;9663;48.996;8.334;2023-11-21T00:53:55;2.83;;;0.88;;
19059;SDS011;9663;48.996;8.334;2023-11-21T00:56:21;4.55;;;1.02;;
19059;SDS011;9663;48.996;8.334;2023-11-21T00:58:49;3.90;;;1.00;;
19059;SDS011;9663;48.996;8.334;2023-11-21T01:01:17;3.10;;;0.90;;
19059;SDS011;9663;48.996;8.334;2023-11-21T01:03:49;2.20;;;0.75;;
19059;SDS011;9663;48.996;8.334;2023-11-21T01:06:15;2.97;;;0.95;;
19059;SDS011;9663;48.996;8.334;2023-11-21T01:08:42;3.13;;;1.02;;
19059;SDS011;9663;48.996;8.334;2023-11-21T01:11:11;2.38;;;0.80;;
19059;SDS011;9663;48.996;8.334;2023-11-21T01:13:40;2.58;;;0.75;;
19059;SDS011;9663;48.996;8.334;2023-11-21T01:16:07;2.65;;;0.80;;
19059;SDS011;9663;48.996;8.334;2023-11-21T01:18:34;2.65;;;0.80;;
19059;SDS011;9663;48.996;8.334;2023-11-21T01:21:01;3.42;;;1.00;;
19059;SDS011;9663;48.996;8.334;2023-11-21T01:23:27;4.00;;;1.10;;
19059;SDS011;9663;48.996;8.334;2023-11-21T01:25:54;4.75;;;1.17;;
19059;SDS011;9663;48.996;8.334;2023-11-21T01:28:21;2.17;;;0.70;;
19059;SDS011;9663;48.996;8.334;2023-11-21T01:30:47;3.35;;;0.93;;
19059;SDS011;9663;48.996;8.334;2023-11-21T01:33:13;3.20;;;1.00;;
19059;SDS011;9663;48.996;8.334;2023-11-21T01:35:40;2.90;;;0.95;;
19059;SDS011;9663;48.996;8.334;2023-11-21T01:38:07;2.13;;;0.70;;
19059;SDS011;9663;48.996;8.334;2023-11-21T01:40:33;2.75;;;1.00;;
19059;SDS011;9663;48.996;8.334;2023-11-21T01:42:59;4.20;;;0.93;;
19059;SDS011;9663;48.996;8.334;2023-11-21T01:45:28;2.80;;;0.98;;
19059;SDS011;9663;48.996;8.334;2023-11-21T01:47:56;3.28;;;1.10;;
19059;SDS011;9663;48.996;8.334;2023-11-21T01:50:23;2.40;;;0.70;;
19059;SDS011;9663;48.996;8.334;2023-11-21T01:52:50;3.83;;;0.90;;
19059;SDS011;9663;48.996;8.334;2023-11-21T01:55:17;2.85;;;0.98;;
19059;SDS011;9663;48.996;8.334;2023-11-21T01:57:44;2.72;;;0.90;;
19059;SDS011;9663;48.996;8.334;2023-11-21T02:00:13;3.13;;;0.98;;
19059;SDS011;9663;48.996;8.334;2023-11-21T02:02:47;3.65;;;0.90;;
19059;SDS011;9663;48.996;8.334;2023-11-21T02:05:17;2.28;;;0.80;;
19059;SDS011;9663;48.996;8.334;2023-11-21T02:07:44;2.08;;;0.85;;
19059;SDS011;9663;48.996;8.334;2023-11-21T02:10:14;3.33;;;1.00;;
19059;SDS011;9663;48.996;8.334;2023-11-21T02:12:41;2.55;;;0.80;;
19059;SDS011;9663;48.996;8.334;2023-11-21T02:15:08;5.30;;;1.15;;
19059;SDS011;9663;48.996;8.334;2023-11-21T02:17:43;3.78;;;0.90;;
19059;SDS011;9663;48.996;8.334;2023-11-21T02:20:12;2.20;;;0.82;;
19059;SDS011;9663;48.996;8.334;2023-11-21T02:22:42;1.77;;;0.70;;
19059;SDS011;9663;48.996;8.334;2023-11-21T02:25:25;2.67;;;0.82;;
19059;SDS011;9663;48.996;8.334;2023-11-21T02:27:53;2.70;;;0.90;;
19059;SDS011;9663;48.996;8.334;2023-11-21T02:30:20;2.75;;;0.88;;
19059;SDS011;9663;48.996;8.334;2023-11-21T02:32:47;3.55;;;1.10;;
19059;SDS011;9663;48.996;8.334;2023-11-21T02:35:13;2.50;;;0.70;;
19059;SDS011;9663;48.996;8.334;2023-11-21T02:37:40;2.92;;;0.80;;
19059;SDS011;9663;48.996;8.334;2023-11-21T02:40:10;4.25;;;0.93;;
19059;SDS011;9663;48.996;8.334;2023-11-21T02:42:42;2.08;;;0.73;;
19059;SDS011;9663;48.996;8.334;2023-11-21T02:45:09;2.42;;;0.90;;
19059;SDS011;9663;48.996;8.334;2023-11-21T02:47:38;2.83;;;0.90;;
19059;SDS011;9663;48.996;8.334;2023-11-21T02:50:04;3.97;;;1.17;;
19059;SDS011;9663;48.996;8.334;2023-11-21T02:52:33;2.33;;;0.80;;
19059;SDS011;9663;48.996;8.334;2023-11-21T02:55:00;3.65;;;0.75;;
19059;SDS011;9663;48.996;8.334;2023-11-21T02:57:29;2.13;;;0.77;;
19059;SDS011;9663;48.996;8.334;2023-11-21T02:59:55;2.20;;;0.70;;
19059;SDS011;9663;48.996;8.334;2023-11-21T03:02:21;2.35;;;0.88;;
19059;SDS011;9663;48.996;8.334;2023-11-21T03:04:47;1.95;;;0.80;;
19059;SDS011;9663;48.996;8.334;2023-11-21T03:07:14;1.48;;;0.70;;
19059;SDS011;9663;48.996;8.334;2023-11-21T03:09:41;2.20;;;0.70;;
19059;SDS011;9663;48.996;8.334;2023-11-21T03:12:06;2.28;;;0.80;;
19059;SDS011;9663;48.996;8.334;2023-11-21T03:14:33;1.77;;;0.70;;
19059;SDS011;9663;48.996;8.334;2023-11-21T03:16:59;2.45;;;0.80;;
19059;SDS011;9663;48.996;8.334;2023-11-21T03:19:25;2.05;;;0.80;;
19059;SDS011;9663;48.996;8.334;2023-11-21T03:21:51;2.90;;;0.90;;
19059;SDS011;9663;48.996;8.334;2023-11-21T03:24:18;3.35;;;0.98;;
19059;SDS011;9663;48.996;8.334;2023-11-21T03:26:45;2.15;;;0.68;;
19059;SDS011;9663;48.996;8.334;2023-11-21T03:29:11;2.20;;;0.73;;
19059;SDS011;9663;48.996;8.334;2023-11-21T03:31:37;2.17;;;0.82;;
19059;SDS011;9663;48.996;8.334;2023-11-21T03:34:04;1.95;;;0.70;;
19059;SDS011;9663;48.996;8.334;2023-11-21T03:36:29;2.90;;;0.80;;
19059;SDS011;9663;48.996;8.334;2023-11-21T03:38:55;3.08;;;0.75;;
19059;SDS011;9663;48.996;8.334;2023-11-21T03:41:21;1.88;;;0.70;;
19059;SDS011;9663;48.996;8.334;2023-11-21T03:43:47;2.05;;;0.70;;
19059;SDS011;9663;48.996;8.334;2023-11-21T03:46:12;1.65;;;0.55;;
19059;SDS011;9663;48.996;8.334;2023-11-21T03:48:38;3.40;;;0.75;;
19059;SDS011;9663;48.996;8.334;2023-11-21T03:51:04;2.35;;;0.77;;
19059;SDS011;9663;48.996;8.334;2023-11-21T03:53:31;2.17;;;0.70;;
19059;SDS011;9663;48.996;8.334;2023-11-21T03:55:57;3.85;;;1.05;;
19059;SDS011;9663;48.996;8.334;2023-11-21T03:58:23;1.98;;;0.63;;
19059;SDS011;9663;48.996;8.334;2023-11-21T04:00:48;3.28;;;0.80;;
19059;SDS011;9663;48.996;8.334;2023-11-21T04:03:14;2.35;;;0.70;;
19059;SDS011;9663;48.996;8.334;2023-11-21T04:05:40;1.88;;;0.82;;
19059;SDS011;9663;48.996;8.334;2023-11-21T04:08:06;4.03;;;0.80;;
19059;SDS011;9663;48.996;8.334;2023-11-21T04:10:32;2.47;;;0.80;;
19059;SDS011;9663;48.996;8.334;2023-11-21T04:12:57;3.38;;;0.98;;
19059;SDS011;9663;48.996;8.334;2023-11-21T04:15:25;1.30;;;0.60;;
19059;SDS011;9663;48.996;8.334;2023-11-21T04:17:51;2.63;;;0.70;;
19059;SDS011;9663;48.996;8.334;2023-11-21T04:20:17;3.13;;;0.82;;
19059;SDS011;9663;48.996;8.334;2023-11-21T04:22:43;1.45;;;0.70;;
19059;SDS011;9663;48.996;8.334;2023-11-21T04:25:15;1.23;;;0.60;;
19059;SDS011;9663;48.996;8.334;2023-11-21T04:27:42;1.67;;;0.63;;
19059;SDS011;9663;48.996;8.334;2023-11-21T04:30:09;1.88;;;0.60;;
19059;SDS011;9663;48.996;8.334;2023-11-21T04:32:39;3.03;;;0.85;;
19059;SDS011;9663;48.996;8.334;2023-11-21T04:35:05;2.45;;;0.80;;
19059;SDS011;9663;48.996;8.334;2023-11-21T04:37:31;2.08;;;0.70;;
19059;SDS011;9663;48.996;8.334;2023-11-21T04:39:57;2.35;;;0.70;;
19059;SDS011;9663;48.996;8.334;2023-11-21T04:42:22;2.40;;;0.65;;
19059;SDS011;9663;48.996;8.334;2023-11-21T04:44:48;2.13;;;0.70;;
19059;SDS011;9663;48.996;8.334;2023-11-21T04:47:14;2.55;;;0.70;;
19059;SDS011;9663;48.996;8.334;2023-11-21T04:49:41;2.92;;;0.80;;
19059;SDS011;9663;48.996;8.334;2023-11-21T04:52:08;2.70;;;0.82;;
19059;SDS011;9663;48.996;8.334;2023-11-21T04:54:35;1.75;;;0.70;;
19059;SDS011;9663;48.996;8.334;2023-11-21T04:57:01;3.17;;;0.82;;
19059;SDS011;9663;48.996;8.334;2023-11-21T04:59:27;1.92;;;0.70;;
19059;SDS011;9663;48.996;8.334;2023-11-21T05:01:53;5.45;;;0.90;;
19059;SDS011;9663;48.996;8.334;2023-11-21T05:04:19;1.77;;;0.70;;
19059;SDS011;9663;48.996;8.334;2023-11-21T05:06:47;2.90;;;1.00;;
19059;SDS011;9663;48.996;8.334;2023-11-21T05:09:13;2.35;;;0.95;;
19059;SDS011;9663;48.996;8.334;2023-11-21T05:11:40;3.15;;;0.80;;
19059;SDS011;9663;48.996;8.334;2023-11-21T05:14:06;2.90;;;0.90;;
19059;SDS011;9663;48.996;8.334;2023-11-21T05:16:32;2.28;;;0.88;;
19059;SDS011;9663;48.996;8.334;2023-11-21T05:18:58;1.50;;;0.63;;
19059;SDS011;9663;48.996;8.334;2023-11-21T05:21:25;1.63;;;0.70;;
19059;SDS011;9663;48.996;8.334;2023-11-21T05:23:52;3.08;;;0.88;;
19059;SDS011;9663;48.996;8.334;2023-11-21T05:26:18;2.40;;;0.88;;
19059;SDS011;9663;48.996;8.334;2023-11-21T05:28:43;1.63;;;0.68;;
19059;SDS011;9663;48.996;8.334;2023-11-21T05:31:09;1.90;;;0.80;;
19059;SDS011;9663;48.996;8.334;2023-11-21T05:33:35;2.47;;;1.00;;
19059;SDS011;9663;48.996;8.334;2023-11-21T05:36:02;2.10;;;0.75;;
19059;SDS011;9663;48.996;8.334;2023-11-21T05:38:28;2.72;;;1.02;;
19059;SDS011;9663;48.996;8.334;2023-11-21T05:40:54;1.95;;;0.80;;
19059;SDS011;9663;48.996;8.334;2023-11-21T05:43:20;2.45;;;0.85;;
19059;SDS011;9663;48.996;8.334;2023-11-21T05:45:45;2.53;;;0.90;;
19059;SDS011;9663;48.996;8.334;2023-11-21T05:48:11;2.20;;;0.80;;
19059;SDS011;9663;48.996;8.334;2023-11-21T05:50:37;2.90;;;0.80;;
19059;SDS011;9663;48.996;8.334;2023-11-21T05:53:03;2.50;;;1.00;;
19059;SDS011;9663;48.996;8.334;2023-11-21T05:55:29;3.00;;;0.90;;
19059;SDS011;9663;48.996;8.334;2023-11-21T05:57:55;3.72;;;0.90;;
19059;SDS011;9663;48.996;8.334;2023-11-21T06:00:20;1.65;;;0.80;;
19059;SDS011;9663;48.996;8.334;2023-11-21T06:02:50;2.28;;;0.90;;
19059;SDS011;9663;48.996;8.334;2023-11-21T06:05:20;2.30;;;0.88;;
19059;SDS011;9663;48.996;8.334;2023-11-21T06:07:52;1.88;;;0.82;;
19059;SDS011;9663;48.996;8.334;2023-11-21T06:10:22;2.33;;;0.95;;
19059;SDS011;9663;48.996;8.334;2023-11-21T06:12:49;2.78;;;1.10;;
19059;SDS011;9663;48.996;8.334;2023-11-21T06:15:14;2.72;;;0.90;;
19059;SDS011;9663;48.996;8.334;2023-11-21T06:17:41;2.03;;;0.80;;
19059;SDS011;9663;48.996;8.334;2023-11-21T06:20:08;2.53;;;1.00;;
19059;SDS011;9663;48.996;8.334;2023-11-21T06:22:39;2.75;;;0.88;;
19059;SDS011;9663;48.996;8.334;2023-11-21T06:25:07;2.25;;;0.98;;
19059;SDS011;9663;48.996;8.334;2023-11-21T06:27:34;2.58;;;0.88;;
19059;SDS011;9663;48.996;8.334;2023-11-21T06:30:13;2.10;;;0.80;;
19059;SDS011;9663;48.996;8.334;2023-11-21T06:32:40;2.58;;;1.00;;
19059;SDS011;9663;48.996;8.334;2023-11-21T06:35:07;2.50;;;0.95;;
19059;SDS011;9663;48.996;8.334;2023-11-21T06:37:34;1.92;;;0.80;;
19059;SDS011;9663;48.996;8.334;2023-11-21T06:40:00;1.98;;;0.70;;
19059;SDS011;9663;48.996;8.334;2023-11-21T06:42:28;2.67;;;1.00;;
19059;SDS011;9663;48.996;8.334;2023-11-21T06:44:54;4.45;;;1.02;;
19059;SDS011;9663;48.996;8.334;2023-11-21T06:47:22;2.28;;;1.00;;
19059;SDS011;9663;48.996;8.334;2023-11-21T06:49:52;2.00;;;0.80;;
19059;SDS011;9663;48.996;8.334;2023-11-21T06:52:19;3.63;;;1.20;;
19059;SDS011;9663;48.996;8.334;2023-11-21T06:54:45;2.58;;;0.90;;
19059;SDS011;9663;48.996;8.334;2023-11-21T06:57:12;2.08;;;0.80;;
19059;SDS011;9663;48.996;8.334;2023-11-21T06:59:38;3.03;;;0.98;;
19059;SDS011;9663;48.996;8.334;2023-11-21T07:02:04;2.17;;;0.93;;
19059;SDS011;9663;48.996;8.334;2023-11-21T07:04:33;2.60;;;1.10;;
19059;SDS011;9663;48.996;8.334;2023-11-21T07:06:59;2.20;;;0.90;;
19059;SDS011;9663;48.996;8.334;2023-11-21T07:09:25;2.45;;;1.20;;
19059;SDS011;9663;48.996;8.334;2023-11-21T07:11:51;2.67;;;0.88;;
19059;SDS011;9663;48.996;8.334;2023-11-21T07:14:17;3.00;;;1.20;;
19059;SDS011;9663;48.996;8.334;2023-11-21T07:16:44;2.65;;;1.10;;
19059;SDS011;9663;48.996;8.334;2023-11-21T07:19:11;2.65;;;1.00;;
19059;SDS011;9663;48.996;8.334;2023-11-21T07:21:37;2.67;;;1.17;;
19059;SDS011;9663;48.996;8.334;2023-11-21T07:24:05;2.30;;;1.10;;
19059;SDS011;9663;48.996;8.334;2023-11-21T07:26:32;2.92;;;1.20;;
19059;SDS011;9663;48.996;8.334;2023-11-21T07:28:59;3.22;;;1.45;;
19059;SDS011;9663;48.996;8.334;2023-11-21T07:31:26;2.78;;;1.15;;
19059;SDS011;9663;48.996;8.334;2023-11-21T07:33:52;2.63;;;1.00;;
19059;SDS011;9663;48.996;8.334;2023-11-21T07:36:18;2.42;;;1.10;;
19059;SDS011;9663;48.996;8.334;2023-11-21T07:38:45;2.20;;;1.00;;
19059;SDS011;9663;48.996;8.334;2023-11-21T07:41:12;3.17;;;1.20;;
19059;SDS011;9663;48.996;8.334;2023-11-21T07:43:40;2.90;;;1.20;;
19059;SDS011;9663;48.996;8.334;2023-11-21T07:46:07;3.10;;;1.30;;
19059;SDS011;9663;48.996;8.334;2023-11-21T07:48:33;3.50;;;1.50;;
19059;SDS011;9663;48.996;8.334;2023-11-21T07:51:00;3.78;;;1.35;;
19059;SDS011;9663;48.996;8.334;2023-11-21T07:53:30;2.83;;;1.05;;
19059;SDS011;9663;48.996;8.334;2023-11-21T07:55:56;4.50;;;1.30;;
19059;SDS011;9663;48.996;8.334;2023-11-21T07:58:23;3.13;;;1.25;;
19059;SDS011;9663;48.996;8.334;2023-11-21T08:00:49;4.93;;;1.15;;
19059;SDS011;9663;48.996;8.334;2023-11-21T08:03:15;3.33;;;1.20;;
19059;SDS011;9663;48.996;8.334;2023-11-21T08:05:41;3.00;;;1.08;;
19059;SDS011;9663;48.996;8.334;2023-11-21T08:08:07;2.55;;;0.93;;
19059;SDS011;9663;48.996;8.334;2023-11-21T08:10:33;2.15;;;0.85;;
19059;SDS011;9663;48.996;8.334;2023-11-21T08:13:00;2.90;;;1.20;;
19059;SDS011;9663;48.996;8.334;2023-11-21T08:15:28;2.65;;;1.00;;
19059;SDS011;9663;48.996;8.334;2023-11-21T08:17:56;2.78;;;0.98;;
19059;SDS011;9663;48.996;8.334;2023-11-21T08:20:24;2.72;;;1.15;;
19059;SDS011;9663;48.996;8.334;2023-11-21T08:22:50;2.83;;;1.10;;
19059;SDS011;9663;48.996;8.334;2023-11-21T08:25:17;2.88;;;1.17;;
19059;SDS011;9663;48.996;8.334;2023-11-21T08:27:45;2.47;;;1.10;;
19059;SDS011;9663;48.996;8.334;2023-11-21T08:30:11;2.95;;;1.10;;
19059;SDS011;9663;48.996;8.334;2023-11-21T08:32:39;2.80;;;1.05;;
19059;SDS011;9663;48.996;8.334;2023-11-21T08:35:07;2.90;;;1.30;;
19059;SDS011;9663;48.996;8.334;2023-11-21T08:37:33;2.60;;;1.13;;
19059;SDS011;9663;48.996;8.334;2023-11-21T08:40:02;3.35;;;1.40;;
19059;SDS011;9663;48.996;8.334;2023-11-21T08:42:34;3.78;;;1.65;;
19059;SDS011;9663;48.996;8.334;2023-11-21T08:45:00;4.20;;;1.30;;
19059;SDS011;9663;48.996;8.334;2023-11-21T08:47:26;3.75;;;1.58;;
19059;SDS011;9663;48.996;8.334;2023-11-21T08:49:52;3.17;;;1.38;;
19059;SDS011;9663;48.996;8.334;2023-11-21T08:52:18;2.88;;;1.30;;
19059;SDS011;9663;48.996;8.334;2023-11-21T08:54:48;2.97;;;1.38;;
19059;SDS011;9663;48.996;8.334;2023-11-21T08:57:20;3.30;;;1.50;;
19059;SDS011;9663;48.996;8.334;2023-11-21T08:59:50;3.33;;;1.40;;
19059;SDS011;9663;48.996;8.334;2023-11-21T09:02:25;4.30;;;1.63;;
19059;SDS011;9663;48.996;8.334;2023-11-21T09:04:51;2.65;;;1.17;;
19059;SDS011;9663;48.996;8.334;2023-11-21T09:07:20;2.65;;;1.25;;
19059;SDS011;9663;48.996;8.334;2023-11-21T09:09:48;2.85;;;1.23;;
19059;SDS011;9663;48.996;8.334;2023-11-21T09:12:14;3.25;;;1.58;;
19059;SDS011;9663;48.996;8.334;2023-11-21T09:14:40;3.28;;;1.35;;
19059;SDS011;9663;48.996;8.334;2023-11-21T09:17:07;3.10;;;1.45;;
19059;SDS011;9663;48.996;8.334;2023-11-21T09:19:37;3.00;;;1.27;;
19059;SDS011;9663;48.996;8.334;2023-11-21T09:22:04;2.97;;;1.30;;
19059;SDS011;9663;48.996;8.334;2023-11-21T09:24:33;3.10;;;1.45;;
19059;SDS011;9663;48.996;8.334;2023-11-21T09:26:59;3.55;;;1.50;;
19059;SDS011;9663;48.996;8.334;2023-11-21T09:29:25;3.95;;;1.50;;
19059;SDS011;9663;48.996;8.334;2023-11-21T09:31:52;3.65;;;1.50;;
19059;SDS011;9663;48.996;8.334;2023-11-21T09:34:19;3.80;;;1.90;;
19059;SDS011;9663;48.996;8.334;2023-11-21T09:36:46;4.03;;;2.03;;
19059;SDS011;9663;48.996;8.334;2023-11-21T09:39:12;4.03;;;1.98;;
19059;SDS011;9663;48.996;8.334;2023-11-21T09:41:43;3.50;;;1.60;;
19059;SDS011;9663;48.996;8.334;2023-11-21T09:44:19;3.78;;;1.77;;
19059;SDS011;9663;48.996;8.334;2023-11-21T09:46:58;3.58;;;1.77;;
19059;SDS011;9663;48.996;8.334;2023-11-21T09:49:25;3.30;;;1.70;;
19059;SDS011;9663;48.996;8.334;2023-11-21T09:51:53;3.80;;;1.60;;
19059;SDS011;9663;48.996;8.334;2023-11-21T09:54:22;3.40;;;1.60;;
19059;SDS011;9663;48.996;8.334;2023-11-21T09:56:48;3.83;;;1.88;;
19059;SDS011;9663;48.996;8.334;2023-11-21T09:59:15;3.80;;;1.85;;
19059;SDS011;9663;48.996;8.334;2023-11-21T10:01:41;4.55;;;2.13;;
19059;SDS011;9663;48.996;8.334;2023-11-21T10:04:10;4.10;;;2.05;;
19059;SDS011;9663;48.996;8.334;2023-11-21T10:06:40;3.50;;;1.75;;
19059;SDS011;9663;48.996;8.334;2023-11-21T10:09:08;4.00;;;1.92;;
19059;SDS011;9663;48.996;8.334;2023-11-21T10:11:37;4.38;;;1.70;;
19059;SDS011;9663;48.996;8.334;2023-11-21T10:14:08;3.72;;;1.60;;
19059;SDS011;9663;48.996;8.334;2023-11-21T10:16:38;3.60;;;1.70;;
19059;SDS011;9663;48.996;8.334;2023-11-21T10:19:05;3.50;;;1.55;;
19059;SDS011;9663;48.996;8.334;2023-11-21T10:21:40;3.35;;;1.35;;
19059;SDS011;9663;48.996;8.334;2023-11-21T10:24:06;3.47;;;1.50;;
19059;SDS011;9663;48.996;8.334;2023-11-21T10:26:32;3.83;;;1.42;;
19059;SDS011;9663;48.996;8.334;2023-11-21T10:28:59;3.00;;;1.20;;
19059;SDS011;9663;48.996;8.334;2023-11-21T10:31:31;3.10;;;1.30;;
19059;SDS011;9663;48.996;8.334;2023-11-21T10:34:15;3.38;;;1.40;;
19059;SDS011;9663;48.996;8.334;2023-11-21T10:36:43;3.25;;;1.38;;
19059;SDS011;9663;48.996;8.334;2023-11-21T10:39:14;4.35;;;1.63;;
19059;SDS011;9663;48.996;8.334;2023-11-21T10:41:48;3.30;;;1.35;;
19059;SDS011;9663;48.996;8.334;2023-11-21T10:44:15;3.45;;;1.48;;
19059;SDS011;9663;48.996;8.334;2023-11-21T10:46:49;3.42;;;1.48;;
19059;SDS011;9663;48.996;8.334;2023-11-21T10:49:25;3.22;;;1.23;;
19059;SDS011;9663;48.996;8.334;2023-11-21T10:51:52;3.03;;;1.25;;
19059;SDS011;9663;48.996;8.334;2023-11-21T10:54:23;3.33;;;1.50;;
19059;SDS011;9663;48.996;8.334;2023-11-21T10:56:53;3.50;;;1.35;;
19059;SDS011;9663;48.996;8.334;2023-11-21T10:59:24;3.40;;;1.35;;
19059;SDS011;9663;48.996;8.334;2023-11-21T11:01:54;3.22;;;1.50;;
19059;SDS011;9663;48.996;8.334;2023-11-21T11:04:23;3.13;;;1.45;;
19059;SDS011;9663;48.996;8.334;2023-11-21T11:06:56;3.05;;;1.40;;
19059;SDS011;9663;48.996;8.334;2023-11-21T11:09:26;3.60;;;1.52;;
19059;SDS011;9663;48.996;8.334;2023-11-21T11:11:52;3.03;;;1.33;;
19059;SDS011;9663;48.996;8.334;2023-11-21T11:14:19;3.38;;;1.58;;
19059;SDS011;9663;48.996;8.334;2023-11-21T11:16:45;3.08;;;1.25;;
19059;SDS011;9663;48.996;8.334;2023-11-21T11:19:11;3.65;;;1.60;;
19059;SDS011;9663;48.996;8.334;2023-11-21T11:24:48;3.45;;;1.40;;
19059;SDS011;9663;48.996;8.334;2023-11-21T11:27:37;4.18;;;1.70;;
19059;SDS011;9663;48.996;8.334;2023-11-21T11:33:31;3.25;;;1.40;;
19059;SDS011;9663;48.996;8.334;2023-11-21T11:36:10;4.30;;;2.50;;
19059;SDS011;9663;48.996;8.334;2023-11-21T11:38:47;4.20;;;1.73;;
19059;SDS011;9663;48.996;8.334;2023-11-21T11:41:26;3.45;;;1.60;;
19059;SDS011;9663;48.996;8.334;2023-11-21T11:43:57;4.03;;;2.33;;
19059;SDS011;9663;48.996;8.334;2023-11-21T11:46:43;4.13;;;1.65;;
19059;SDS011;9663;48.996;8.334;2023-11-21T11:49:27;3.80;;;1.73;;
19059;SDS011;9663;48.996;8.334;2023-11-21T11:55:08;3.55;;;1.70;;
19059;SDS011;9663;48.996;8.334;2023-11-21T11:57:40;3.47;;;1.58;;
19059;SDS011;9663;48.996;8.334;2023-11-21T12:02:40;3.58;;;1.48;;
19059;SDS011;9663;48.996;8.334;2023-11-21T12:05:13;3.67;;;1.65;;
19059;SDS011;9663;48.996;8.334;2023-11-21T12:07:56;3.42;;;1.60;;
19059;SDS011;9663;48.996;8.334;2023-11-21T12:10:26;4.05;;;1.60;;
19059;SDS011;9663;48.996;8.334;2023-11-21T12:12:55;3.33;;;1.45;;
19059;SDS011;9663;48.996;8.334;2023-11-21T12:15:32;3.05;;;1.30;;
19059;SDS011;9663;48.996;8.334;2023-11-21T12:18:00;3.50;;;1.42;;
19059;SDS011;9663;48.996;8.334;2023-11-21T12:20:26;3.33;;;1.58;;
19059;SDS011;9663;48.996;8.334;2023-11-21T12:22:53;3.67;;;1.80;;
19059;SDS011;9663;48.996;8.334;2023-11-21T12:25:22;3.13;;;1.40;;
19059;SDS011;9663;48.996;8.334;2023-11-21T12:27:51;3.33;;;1.60;;
19059;SDS011;9663;48.996;8.334;2023-11-21T12:30:21;3.45;;;1.50;;
19059;SDS011;9663;48.996;8.334;2023-11-21T12:32:50;3.78;;;1.67;;
19059;SDS011;9663;48.996;8.334;2023-11-21T12:35:21;3.47;;;1.38;;
19059;SDS011;9663;48.996;8.334;2023-11-21T12:37:50;3.33;;;1.58;;
19059;SDS011;9663;48.996;8.334;2023-11-21T12:40:17;4.00;;;1.40;;
19059;SDS011;9663;48.996;8.334;2023-11-21T12:42:44;3.63;;;1.70;;
19059;SDS011;9663;48.996;8.334;2023-11-21T12:50:37;3.08;;;1.40;;
19059;SDS011;9663;48.996;8.334;2023-11-21T12:53:04;4.13;;;1.77;;
19059;SDS011;9663;48.996;8.334;2023-11-21T12:55:37;3.78;;;1.48;;
19059;SDS011;9663;48.996;8.334;2023-11-21T12:58:04;4.13;;;1.67;;
19059;SDS011;9663;48.996;8.334;2023-11-21T13:00:36;3.38;;;1.63;;
19059;SDS011;9663;48.996;8.334;2023-11-21T13:03:08;3.75;;;1.67;;
19059;SDS011;9663;48.996;8.334;2023-11-21T13:05:37;3.50;;;1.80;;
19059;SDS011;9663;48.996;8.334;2023-11-21T13:08:09;2.97;;;1.40;;
19059;SDS011;9663;48.996;8.334;2023-11-21T13:10:43;3.65;;;1.58;;
19059;SDS011;9663;48.996;8.334;2023-11-21T13:13:12;3.42;;;1.48;;
19059;SDS011;9663;48.996;8.334;2023-11-21T13:15:47;2.88;;;1.40;;
19059;SDS011;9663;48.996;8.334;2023-11-21T13:18:21;2.70;;;1.20;;
19059;SDS011;9663;48.996;8.334;2023-11-21T13:20:52;3.60;;;1.50;;
19059;SDS011;9663;48.996;8.334;2023-11-21T13:23:20;3.58;;;1.50;;
19059;SDS011;9663;48.996;8.334;2023-11-21T13:25:46;3.45;;;1.38;;
19059;SDS011;9663;48.996;8.334;2023-11-21T13:28:13;4.43;;;1.90;;
19059;SDS011;9663;48.996;8.334;2023-11-21T13:30:40;3.15;;;1.30;;
19059;SDS011;9663;48.996;8.334;2023-11-21T13:33:07;2.95;;;1.30;;
19059;SDS011;9663;48.996;8.334;2023-11-21T13:35:35;2.83;;;1.27;;
19059;SDS011;9663;48.996;8.334;2023-11-21T13:38:13;3.13;;;1.25;;
19059;SDS011;9663;48.996;8.334;2023-11-21T13:40:51;3.38;;;1.17;;
19059;SDS011;9663;48.996;8.334;2023-11-21T13:43:22;3.05;;;1.30;;
19059;SDS011;9663;48.996;8.334;2023-11-21T13:45:51;2.58;;;1.10;;
19059;SDS011;9663;48.996;8.334;2023-11-21T13:48:37;2.95;;;1.40;;
19059;SDS011;9663;48.996;8.334;2023-11-21T13:51:07;3.17;;;1.25;;
19059;SDS011;9663;48.996;8.334;2023-11-21T13:53:45;4.35;;;1.92;;
19059;SDS011;9663;48.996;8.334;2023-11-21T13:56:15;3.38;;;1.60;;
19059;SDS011;9663;48.996;8.334;2023-11-21T13:58:45;3.45;;;1.25;;
19059;SDS011;9663;48.996;8.334;2023-11-21T14:01:17;4.57;;;1.50;;
19059;SDS011;9663;48.996;8.334;2023-11-21T14:04:06;3.08;;;1.40;;
19059;SDS011;9663;48.996;8.334;2023-11-21T14:06:37;3.97;;;1.60;;
19059;SDS011;9663;48.996;8.334;2023-11-21T14:09:13;4.03;;;1.98;;
19059;SDS011;9663;48.996;8.334;2023-11-21T14:11:54;3.30;;;1.45;;
19059;SDS011;9663;48.996;8.334;2023-11-21T14:14:22;3.55;;;1.60;;
19059;SDS011;9663;48.996;8.334;2023-11-21T14:16:51;2.78;;;1.20;;
19059;SDS011;9663;48.996;8.334;2023-11-21T14:19:17;2.80;;;1.25;;
19059;SDS011;9663;48.996;8.334;2023-11-21T14:21:44;3.45;;;1.15;;
19059;SDS011;9663;48.996;8.334;2023-11-21T14:24:11;3.13;;;1.30;;
19059;SDS011;9663;48.996;8.334;2023-11-21T14:26:39;2.88;;;1.10;;
19059;SDS011;9663;48.996;8.334;2023-11-21T14:29:06;2.83;;;1.13;;
19059;SDS011;9663;48.996;8.334;2023-11-21T14:31:33;3.42;;;1.42;;
19059;SDS011;9663;48.996;8.334;2023-11-21T14:33:59;3.30;;;1.52;;
19059;SDS011;9663;48.996;8.334;2023-11-21T14:36:28;3.70;;;1.65;;
19059;SDS011;9663;48.996;8.334;2023-11-21T14:38:54;6.10;;;3.20;;
19059;SDS011;9663;48.996;8.334;2023-11-21T14:41:19;5.40;;;2.40;;
19059;SDS011;9663;48.996;8.334;2023-11-21T14:43:45;3.80;;;1.70;;
19059;SDS011;9663;48.996;8.334;2023-11-21T14:46:14;4.20;;;2.15;;
19059;SDS011;9663;48.996;8.334;2023-11-21T14:48:42;3.47;;;1.60;;
19059;SDS011;9663;48.996;8.334;2023-11-21T14:51:08;3.30;;;1.40;;
19059;SDS011;9663;48.996;8.334;2023-11-21T14:53:37;2.97;;;1.10;;
19059;SDS011;9663;48.996;8.334;2023-11-21T14:56:19;3.57;;;1.57;;
19059;SDS011;9663;48.996;8.334;2023-11-21T14:58:54;3.10;;;1.30;;
19059;SDS011;9663;48.996;8.334;2023-11-21T15:01:21;2.92;;;1.20;;
19059;SDS011;9663;48.996;8.334;2023-11-21T15:04:07;3.55;;;1.20;;
19059;SDS011;9663;48.996;8.334;2023-11-21T15:06:40;2.88;;;1.10;;
19059;SDS011;9663;48.996;8.334;2023-11-21T15:09:08;2.75;;;1.00;;
19059;SDS011;9663;48.996;8.334;2023-11-21T15:11:34;2.33;;;1.00;;
19059;SDS011;9663;48.996;8.334;2023-11-21T15:14:02;1.95;;;0.90;;
19059;SDS011;9663;48.996;8.334;2023-11-21T15:16:34;2.35;;;0.95;;
19059;SDS011;9663;48.996;8.334;2023-11-21T15:19:05;4.38;;;1.48;;
19059;SDS011;9663;48.996;8.334;2023-11-21T15:21:32;3.97;;;1.50;;
19059;SDS011;9663;48.996;8.334;2023-11-21T15:23:58;3.80;;;0.98;;